createdAt,value
2018-10-16T00:00:28.206Z,19.00
2018-10-16T00:03:01.839Z,20.67
2018-10-16T00:05:37.717Z,17.87
2018-10-16T00:08:11.210Z,16.80
2018-10-16T00:10:51.135Z,19.20
2018-10-16T00:13:31.044Z,18.80
2018-10-16T00:16:04.620Z,18.90
2018-10-16T00:18:38.129Z,19.33
2018-10-16T00:21:11.589Z,20.07
2018-10-16T00:23:45.114Z,22.43
2018-10-16T00:26:18.664Z,20.00
2018-10-16T00:28:53.151Z,18.23
2018-10-16T00:31:26.661Z,23.60
2018-10-16T00:34:01.077Z,22.30
2018-10-16T00:36:35.618Z,19.70
2018-10-16T00:39:12.409Z,19.43
2018-10-16T00:41:51.837Z,16.60
2018-10-16T00:44:25.277Z,18.20
2018-10-16T00:46:58.914Z,18.93
2018-10-16T00:49:32.398Z,15.77
2018-10-16T00:52:06.085Z,23.77
2018-10-16T00:54:39.483Z,20.47
2018-10-16T00:57:12.997Z,19.37
2018-10-16T00:59:46.494Z,21.33
2018-10-16T01:02:26.500Z,20.73
2018-10-16T01:05:02.935Z,20.40
2018-10-16T01:07:36.344Z,18.87
2018-10-16T01:10:11.561Z,19.43
2018-10-16T01:12:45.057Z,18.77
2018-10-16T01:15:18.593Z,20.47
2018-10-16T01:17:51.978Z,18.37
2018-10-16T01:20:25.573Z,24.03
2018-10-16T01:22:58.940Z,20.60
2018-10-16T01:25:32.627Z,19.23
2018-10-16T01:28:06.240Z,27.07
2018-10-16T01:30:39.742Z,19.30
2018-10-16T01:33:13.330Z,22.00
2018-10-16T01:35:46.929Z,21.57
2018-10-16T01:38:20.365Z,22.57
2018-10-16T01:40:53.743Z,22.47
2018-10-16T01:43:29.237Z,18.57
2018-10-16T01:46:02.828Z,19.57
2018-10-16T01:48:36.649Z,19.87
2018-10-16T01:51:16.341Z,24.13
2018-10-16T01:53:49.780Z,24.47
2018-10-16T01:56:23.083Z,24.23
2018-10-16T01:58:56.490Z,24.50
2018-10-16T02:01:31.988Z,23.87
2018-10-16T02:04:05.623Z,24.43
2018-10-16T02:06:39.102Z,21.23
2018-10-16T02:09:12.629Z,29.53
2018-10-16T02:11:47.133Z,24.00
2018-10-16T02:14:20.575Z,26.23
2018-10-16T02:16:57.256Z,27.63
2018-10-16T02:19:30.752Z,25.20
2018-10-16T02:22:05.453Z,25.73
2018-10-16T02:24:38.924Z,24.43
2018-10-16T02:27:12.520Z,25.50
2018-10-16T02:29:52.413Z,30.33
2018-10-16T02:32:25.879Z,34.77
2018-10-16T02:34:59.299Z,26.70
2018-10-16T02:37:33.750Z,30.17
2018-10-16T02:40:09.085Z,34.67
2018-10-16T02:42:42.531Z,33.67
2018-10-16T02:45:16.142Z,32.27
2018-10-16T02:47:50.662Z,41.20
2018-10-16T02:50:25.082Z,40.93
2018-10-16T02:52:58.835Z,29.63
2018-10-16T02:55:32.535Z,35.87
2018-10-16T02:58:06.156Z,36.33
2018-10-16T03:00:41.775Z,37.37
2018-10-16T03:03:15.436Z,36.53
2018-10-16T03:05:48.883Z,37.17
2018-10-16T03:08:23.459Z,34.37
2018-10-16T03:10:57.342Z,39.37
2018-10-16T03:13:30.767Z,34.87
2018-10-16T03:16:04.580Z,42.07
2018-10-16T03:18:38.187Z,36.30
2018-10-16T03:21:11.756Z,35.70
2018-10-16T03:23:51.789Z,35.27
2018-10-16T03:26:25.354Z,34.80
2018-10-16T03:28:58.896Z,38.30
2018-10-16T03:31:32.328Z,37.00
2018-10-16T03:34:06.057Z,36.63
2018-10-16T03:36:40.604Z,37.70
2018-10-16T03:39:20.388Z,37.53
2018-10-16T03:41:53.704Z,39.03
2018-10-16T03:44:27.189Z,38.77
2018-10-16T03:47:00.756Z,32.67
2018-10-16T03:49:34.282Z,35.37
2018-10-16T03:52:07.899Z,35.67
2018-10-16T03:54:41.326Z,37.87
2018-10-16T03:57:15.680Z,36.20
2018-10-16T03:59:55.907Z,36.40
2018-10-16T04:02:29.385Z,34.67
2018-10-16T04:05:03.171Z,36.60
2018-10-16T04:07:38.087Z,37.17
2018-10-16T04:10:11.598Z,37.07
2018-10-16T04:12:50.390Z,38.57
2018-10-16T04:15:23.917Z,34.07
2018-10-16T04:17:57.338Z,32.67
2018-10-16T04:20:30.771Z,37.93
2018-10-16T04:23:04.379Z,35.87
2018-10-16T04:25:44.139Z,36.80
2018-10-16T04:28:17.472Z,37.77
2018-10-16T04:30:50.808Z,31.70
2018-10-16T04:33:24.222Z,36.87
2018-10-16T04:35:57.850Z,36.13
2018-10-16T04:38:32.347Z,35.77
2018-10-16T04:41:05.837Z,38.33
2018-10-16T04:43:39.497Z,42.90
2018-10-16T04:46:13.013Z,39.03
2018-10-16T04:48:52.787Z,37.00
2018-10-16T04:51:27.144Z,39.80
2018-10-16T04:54:01.660Z,37.77
2018-10-16T04:56:36.053Z,36.90
2018-10-16T04:59:09.786Z,45.93
2018-10-16T05:01:44.265Z,34.50
2018-10-16T05:04:17.978Z,35.70
2018-10-16T05:06:51.523Z,37.13
2018-10-16T05:09:25.000Z,37.10
2018-10-16T05:11:58.627Z,39.97
2018-10-16T05:14:32.083Z,39.47
2018-10-16T05:17:05.644Z,41.33
2018-10-16T05:19:39.231Z,35.23
2018-10-16T05:22:19.045Z,37.33
2018-10-16T05:24:52.451Z,42.27
2018-10-16T05:27:32.417Z,36.03
2018-10-16T05:30:06.058Z,48.63
2018-10-16T05:32:39.694Z,43.23
2018-10-16T05:35:13.182Z,41.60
2018-10-16T05:37:46.708Z,40.43
2018-10-16T05:40:20.302Z,45.87
2018-10-16T05:42:53.701Z,48.10
2018-10-16T05:45:35.615Z,41.30
2018-10-16T05:48:09.116Z,45.27
2018-10-16T05:50:42.772Z,43.03
2018-10-16T05:53:16.288Z,44.00
2018-10-16T05:56:03.643Z,41.77
2018-10-16T05:58:37.147Z,41.80
2018-10-16T06:01:16.949Z,48.37
2018-10-16T06:03:50.499Z,40.50
2018-10-16T06:06:24.065Z,44.53
2018-10-16T06:08:58.853Z,38.87
2018-10-16T06:11:32.365Z,49.93
2018-10-16T06:14:12.361Z,43.83
2018-10-16T06:16:45.815Z,46.80
2018-10-16T06:19:19.406Z,43.83
2018-10-16T06:21:52.869Z,46.30
2018-10-16T06:24:26.505Z,44.97
2018-10-16T06:27:00.029Z,50.40
2018-10-16T06:29:39.956Z,42.97
2018-10-16T06:32:13.509Z,42.77
2018-10-16T06:34:46.978Z,40.97
2018-10-16T06:37:27.088Z,45.20
2018-10-16T06:40:00.525Z,44.87
2018-10-16T06:42:40.273Z,51.60
2018-10-16T06:45:13.858Z,47.80
2018-10-16T06:47:47.490Z,49.87
2018-10-16T06:50:27.301Z,49.07
2018-10-16T06:53:01.065Z,47.60
2018-10-16T06:55:35.554Z,46.70
2018-10-16T06:58:09.196Z,50.27
2018-10-16T07:00:42.746Z,57.40
2018-10-16T07:03:22.654Z,54.80
2018-10-16T07:06:02.521Z,50.73
2018-10-16T07:08:42.482Z,52.27
2018-10-16T07:11:22.273Z,48.90
2018-10-16T07:14:02.193Z,53.83
2018-10-16T07:16:42.040Z,50.50
2018-10-16T07:19:15.393Z,49.80
2018-10-16T07:21:53.140Z,51.63
2018-10-16T07:24:33.273Z,54.30
2018-10-16T07:27:13.197Z,53.93
2018-10-16T07:29:46.711Z,55.07
2018-10-16T07:32:20.285Z,45.07
2018-10-16T07:34:53.753Z,50.03
2018-10-16T07:37:27.321Z,52.10
2018-10-16T07:40:08.290Z,45.17
2018-10-16T07:42:43.326Z,44.50
2018-10-16T07:45:16.815Z,44.40
2018-10-16T07:47:50.332Z,47.20
2018-10-16T07:50:23.927Z,46.80
2018-10-16T07:53:03.618Z,51.70
2018-10-16T07:55:39.148Z,49.93
2018-10-16T07:58:12.649Z,42.17
2018-10-16T08:00:46.161Z,46.77
2018-10-16T08:03:25.529Z,52.77
2018-10-16T08:05:59.056Z,46.90
2018-10-16T08:08:32.604Z,49.20
2018-10-16T08:11:07.046Z,49.63
2018-10-16T08:13:40.608Z,48.70
2018-10-16T08:16:21.237Z,43.30
2018-10-16T08:18:54.645Z,44.27
2018-10-16T08:21:29.311Z,46.43
2018-10-16T08:24:09.490Z,44.00
2018-10-16T08:26:44.065Z,47.10
2018-10-16T08:29:17.570Z,48.00
2018-10-16T08:31:51.493Z,49.08
2018-10-16T08:34:25.052Z,42.05
2018-10-16T08:37:04.957Z,49.80
2018-10-16T08:39:41.116Z,45.12
2018-10-16T08:43:39.102Z,48.28
2018-10-16T08:46:26.901Z,49.13
2018-10-16T08:49:12.086Z,48.35
2018-10-16T08:51:55.813Z,48.83
2018-10-16T08:54:29.313Z,52.73
2018-10-16T08:57:09.121Z,45.05
2018-10-16T08:59:42.553Z,50.43
2018-10-16T09:02:22.601Z,47.90
2018-10-16T09:04:56.109Z,48.40
2018-10-16T09:14:32.376Z,44.08
2018-10-16T09:17:05.963Z,44.53
2018-10-16T09:19:45.805Z,44.05
2018-10-16T09:22:19.315Z,48.38
2018-10-16T09:24:52.808Z,45.55
2018-10-16T09:27:32.692Z,47.03
2018-10-16T09:30:13.345Z,43.78
2018-10-16T09:32:46.769Z,47.50
2018-10-16T09:35:20.205Z,49.90
2018-10-16T09:37:53.821Z,45.00
2018-10-16T09:40:27.324Z,49.38
2018-10-16T09:43:00.824Z,51.40
2018-10-16T09:45:40.902Z,52.62
2018-10-16T09:48:15.277Z,49.67
2018-10-16T09:50:48.737Z,48.27
2018-10-16T09:53:22.297Z,54.80
2018-10-16T09:55:55.845Z,48.30
2018-10-16T09:58:29.912Z,48.47
2018-10-16T10:01:09.270Z,49.73
2018-10-16T10:03:43.795Z,57.37
2018-10-16T10:06:17.247Z,53.15
2018-10-16T10:08:50.697Z,46.30
2018-10-16T10:11:30.656Z,53.87
2018-10-16T10:14:10.467Z,50.55
2018-10-16T10:16:46.091Z,50.00
2018-10-16T10:19:19.805Z,45.90
2018-10-16T10:21:53.150Z,46.95
2018-10-16T10:24:32.941Z,42.70
2018-10-16T10:27:06.789Z,44.33
2018-10-16T10:29:40.382Z,44.55
2018-10-16T10:32:13.930Z,43.42
2018-10-16T10:34:53.817Z,40.63
2018-10-16T10:37:27.449Z,46.28
2018-10-16T10:40:07.245Z,39.25
2018-10-16T10:42:47.068Z,41.18
2018-10-16T10:45:26.773Z,45.17
2018-10-16T10:48:00.451Z,36.73
2018-10-16T10:50:34.294Z,49.58
2018-10-16T10:53:13.875Z,39.38
2018-10-16T10:55:47.453Z,37.05
2018-10-16T10:58:21.040Z,37.53
2018-10-16T11:00:54.627Z,33.40
2018-10-16T11:03:28.172Z,36.15
2018-10-16T11:06:01.688Z,31.17
2018-10-16T11:08:35.149Z,34.23
2018-10-16T11:11:08.670Z,44.33
2018-10-16T11:13:48.575Z,30.72
2018-10-16T11:16:22.062Z,32.95
2018-10-16T11:18:55.410Z,35.88
2018-10-16T11:21:29.875Z,32.35
2018-10-16T11:24:04.704Z,31.75
2018-10-16T11:26:39.239Z,24.90
2018-10-16T11:29:12.724Z,25.43
2018-10-16T11:31:47.276Z,21.68
2018-10-16T11:34:21.793Z,23.75
2018-10-16T11:36:55.408Z,29.02
2018-10-16T11:39:28.937Z,24.10
2018-10-16T11:42:08.809Z,21.65
2018-10-16T11:44:43.369Z,21.45
2018-10-16T11:47:23.307Z,14.35
2018-10-16T11:49:56.826Z,20.12
2018-10-16T11:52:30.413Z,12.85
2018-10-16T11:55:06.246Z,19.57
2018-10-16T11:57:39.699Z,13.05
2018-10-16T12:00:15.962Z,16.67
2018-10-16T12:02:49.617Z,12.60
2018-10-16T12:05:29.243Z,13.18
2018-10-16T12:08:02.862Z,14.28
2018-10-16T12:10:36.363Z,15.83
2018-10-16T12:13:16.355Z,17.52
2018-10-16T12:15:56.227Z,16.15
2018-10-16T12:18:33.331Z,9.88
2018-10-16T12:21:11.280Z,11.90
2018-10-16T12:23:45.175Z,11.55
2018-10-16T12:26:25.010Z,8.35
2018-10-16T12:28:59.426Z,11.20
2018-10-16T12:31:33.719Z,7.90
2018-10-16T12:34:13.635Z,9.83
2018-10-16T12:36:53.638Z,8.00
2018-10-16T12:39:27.285Z,7.47
2018-10-16T12:42:07.086Z,9.33
2018-10-16T12:44:40.645Z,9.55
2018-10-16T12:47:15.129Z,10.25
2018-10-16T12:49:48.865Z,6.85
2018-10-16T12:52:22.538Z,9.53
2018-10-16T12:54:56.161Z,12.75
2018-10-16T12:57:32.668Z,8.03
2018-10-16T13:00:12.465Z,8.30
2018-10-16T13:02:46.025Z,9.95
2018-10-16T13:05:19.637Z,15.68
2018-10-16T13:07:54.085Z,12.60
2018-10-16T13:10:27.653Z,7.58
2018-10-16T13:13:01.934Z,16.40
2018-10-16T13:15:35.482Z,13.43
2018-10-16T13:18:15.580Z,11.55
2018-10-16T13:20:56.822Z,9.58
2018-10-16T13:23:31.427Z,7.28
2018-10-16T13:26:05.184Z,13.38
2018-10-16T13:28:38.877Z,9.15
2018-10-16T13:31:12.973Z,7.78
2018-10-16T13:33:47.679Z,9.20
2018-10-16T13:36:27.525Z,10.55
2018-10-16T13:39:08.133Z,9.58
2018-10-16T13:41:46.284Z,8.00
2018-10-16T13:44:19.774Z,10.48
2018-10-16T13:46:59.626Z,12.70
2018-10-16T13:49:33.765Z,11.03
2018-10-16T13:52:07.619Z,7.55
2018-10-16T13:54:41.060Z,10.63
2018-10-16T13:57:14.712Z,10.75
2018-10-16T13:59:48.303Z,9.88
2018-10-16T14:02:22.018Z,6.40
2018-10-16T14:05:02.136Z,9.20
2018-10-16T14:07:42.327Z,5.90
2018-10-16T14:10:16.678Z,11.57
2018-10-16T14:12:50.349Z,10.13
2018-10-16T14:15:24.915Z,6.58
2018-10-16T14:18:05.166Z,5.97
2018-10-16T14:20:38.611Z,9.58
2018-10-16T14:23:12.293Z,6.28
2018-10-16T14:25:45.652Z,8.50
2018-10-16T14:28:25.586Z,5.87
2018-10-16T14:30:59.908Z,7.10
2018-10-16T14:33:39.929Z,7.62
2018-10-16T14:36:13.296Z,13.35
2018-10-16T14:38:46.982Z,12.60
2018-10-16T14:41:26.902Z,7.97
2018-10-16T14:44:00.408Z,11.60
2018-10-16T14:46:33.799Z,10.72
2018-10-16T14:49:08.216Z,6.22
2018-10-16T14:51:42.551Z,13.20
2018-10-16T14:54:16.211Z,11.25
2018-10-16T14:56:56.218Z,10.80
2018-10-16T14:59:36.263Z,8.70
2018-10-16T15:02:16.272Z,9.68
2018-10-16T15:04:49.818Z,9.58
2018-10-16T15:07:29.855Z,12.70
2018-10-16T15:10:03.816Z,11.40
2018-10-16T15:12:37.215Z,8.58
2018-10-16T15:15:10.819Z,8.10
2018-10-16T15:17:44.349Z,9.25
2018-10-16T15:20:17.921Z,9.30
2018-10-16T15:22:51.710Z,9.63
2018-10-16T15:25:25.293Z,11.45
2018-10-16T15:28:05.340Z,10.65
2018-10-16T15:30:38.721Z,9.15
2018-10-16T15:33:18.650Z,9.88
2018-10-16T15:35:59.152Z,16.82
2018-10-16T15:38:34.045Z,10.45
2018-10-16T15:41:08.076Z,9.65
2018-10-16T15:43:41.913Z,11.75
2018-10-16T15:46:22.196Z,9.98
2018-10-16T15:49:02.380Z,11.73
2018-10-16T15:51:36.487Z,14.93
2018-10-16T15:54:16.811Z,9.15
2018-10-16T15:56:50.627Z,11.65
2018-10-16T15:59:30.828Z,12.73
2018-10-16T16:02:11.107Z,10.63
2018-10-16T16:04:45.627Z,11.83
2018-10-16T16:07:20.548Z,9.55
2018-10-16T16:10:01.114Z,12.05
2018-10-16T16:12:36.339Z,10.95
2018-10-16T16:15:16.794Z,18.48
2018-10-16T16:17:50.888Z,10.32
2018-10-16T16:20:24.886Z,12.68
2018-10-16T16:23:05.213Z,11.78
2018-10-16T16:25:39.155Z,9.38
2018-10-16T16:28:13.050Z,9.90
2018-10-16T16:30:46.919Z,10.68
2018-10-16T16:33:20.848Z,15.78
2018-10-16T16:36:01.123Z,13.53
2018-10-16T16:38:35.137Z,11.75
2018-10-16T16:41:15.429Z,14.13
2018-10-16T16:43:55.746Z,12.30
2018-10-16T16:46:32.708Z,13.10
2018-10-16T16:49:12.777Z,10.45
2018-10-16T16:51:53.026Z,17.57
2018-10-16T16:54:33.223Z,13.00
2018-10-16T16:57:07.221Z,10.95
2018-10-16T16:59:41.205Z,11.10
2018-10-16T17:02:15.098Z,10.98
2018-10-16T17:04:55.366Z,13.30
2018-10-16T17:07:29.132Z,14.78
2018-10-16T17:10:03.985Z,16.15
2018-10-16T17:12:44.270Z,15.78
2018-10-16T17:15:18.252Z,10.30
2018-10-16T17:17:53.199Z,12.25
2018-10-16T17:20:26.898Z,15.72
2018-10-16T17:23:00.758Z,14.98
2018-10-16T17:25:35.025Z,14.70
2018-10-16T17:28:08.967Z,18.57
2018-10-16T17:30:42.762Z,17.27
2018-10-16T17:33:22.972Z,22.25
2018-10-16T17:35:56.811Z,12.85
2018-10-16T17:38:30.906Z,15.70
2018-10-16T17:41:04.856Z,13.90
2018-10-16T17:43:38.781Z,15.32
2018-10-16T17:46:12.767Z,14.05
2018-10-16T17:48:46.530Z,12.53
2018-10-16T17:51:20.426Z,12.88
2018-10-16T17:53:54.403Z,16.07
2018-10-16T17:56:28.206Z,14.83
2018-10-16T17:59:08.564Z,11.25
2018-10-16T18:01:43.314Z,16.82
2018-10-16T18:04:17.881Z,16.30
2018-10-16T18:06:51.510Z,18.27
2018-10-16T18:09:24.961Z,16.97
2018-10-16T18:12:04.905Z,16.60
2018-10-16T18:14:44.887Z,16.55
2018-10-16T18:17:25.036Z,17.32
2018-10-16T18:19:58.708Z,16.73
2018-10-16T18:22:33.242Z,19.57
2018-10-16T18:25:07.246Z,16.40
2018-10-16T18:27:47.001Z,16.73
2018-10-16T18:30:26.902Z,18.90
2018-10-16T18:33:00.385Z,14.67
2018-10-16T18:35:33.953Z,23.30
2018-10-16T18:38:07.853Z,16.30
2018-10-16T18:40:47.997Z,13.23
2018-10-16T18:43:21.505Z,19.27
2018-10-16T18:45:55.324Z,16.67
2018-10-16T18:48:35.451Z,21.63
2018-10-16T18:51:09.488Z,17.92
2018-10-16T18:53:49.325Z,18.67
2018-10-16T18:56:25.880Z,20.45
2018-10-16T18:58:59.546Z,16.73
2018-10-16T19:01:33.017Z,16.43
2018-10-16T19:04:07.882Z,21.70
2018-10-16T19:06:47.722Z,17.80
2018-10-16T19:09:21.281Z,21.60
2018-10-16T19:11:54.867Z,21.82
2018-10-16T19:14:28.537Z,17.30
2018-10-16T19:17:02.084Z,16.30
2018-10-16T19:19:37.722Z,16.77
2018-10-16T19:22:17.489Z,28.27
2018-10-16T19:24:57.402Z,18.47
2018-10-16T19:27:37.372Z,20.10
2018-10-16T19:30:11.811Z,29.27
2018-10-16T19:32:45.437Z,17.83
2018-10-16T19:35:25.320Z,30.77
2018-10-16T19:37:59.739Z,17.80
2018-10-16T19:40:33.225Z,17.37
2018-10-16T19:43:07.817Z,17.13
2018-10-16T19:45:47.475Z,16.33
2018-10-16T19:48:21.657Z,17.57
2018-10-16T19:50:55.213Z,19.00
2018-10-16T19:53:34.970Z,19.27
2018-10-16T19:56:08.661Z,23.50
2018-10-16T19:58:42.200Z,20.60
2018-10-16T20:01:22.090Z,15.33
2018-10-16T20:03:55.751Z,22.63
2018-10-16T20:06:35.730Z,19.40
2018-10-16T20:09:10.320Z,23.63
2018-10-16T20:11:43.711Z,25.50
2018-10-16T20:14:17.459Z,25.03
2018-10-16T20:16:57.281Z,24.77
2018-10-16T20:19:37.320Z,28.32
2018-10-16T20:22:17.279Z,29.53
2018-10-16T20:24:50.794Z,24.03
2018-10-16T20:27:30.630Z,25.93
2018-10-16T20:30:11.169Z,24.50
2018-10-16T20:32:44.765Z,24.80
2018-10-16T20:35:18.365Z,23.37
2018-10-16T20:37:51.796Z,24.13
2018-10-16T20:40:31.664Z,25.10
2018-10-16T20:43:05.353Z,27.20
2018-10-16T20:45:45.137Z,24.07
2018-10-16T20:48:18.862Z,24.53
2018-10-16T20:50:58.751Z,22.43
2018-10-16T20:53:38.617Z,20.33
2018-10-16T20:56:13.137Z,30.17
2018-10-16T20:58:53.364Z,27.67
2018-10-16T21:01:27.128Z,23.40
2018-10-16T21:04:01.562Z,20.97
2018-10-16T21:06:35.167Z,22.97
2018-10-16T21:09:08.724Z,26.07
2018-10-16T21:11:42.405Z,28.00
2018-10-16T21:14:15.945Z,22.33
2018-10-16T21:16:49.527Z,25.75
2018-10-16T21:19:22.922Z,27.73
2018-10-16T21:21:56.672Z,25.33
2018-10-16T21:24:31.295Z,25.53
2018-10-16T21:27:11.961Z,24.03
2018-10-16T21:29:45.412Z,26.23
2018-10-16T21:32:25.312Z,28.10
2018-10-16T21:35:05.881Z,26.70
2018-10-16T21:37:45.604Z,27.60
2018-10-16T21:40:25.607Z,23.73
2018-10-16T21:43:05.800Z,29.73
2018-10-16T21:45:40.605Z,28.97
2018-10-16T21:48:14.636Z,30.07
2018-10-16T21:50:49.370Z,28.30
2018-10-16T21:53:29.488Z,31.10
2018-10-16T21:56:02.931Z,26.97
2018-10-16T21:58:37.360Z,28.53
2018-10-16T22:01:12.383Z,26.50
2018-10-16T22:03:46.023Z,36.53
2018-10-16T22:06:19.627Z,28.67
2018-10-16T22:08:53.394Z,32.10
2018-10-16T22:11:26.910Z,25.23
2018-10-16T22:14:00.422Z,31.17
2018-10-16T22:16:40.375Z,28.17
2018-10-16T22:19:14.193Z,34.23
2018-10-16T22:21:47.712Z,29.60
2018-10-16T22:24:24.624Z,31.63
2018-10-16T22:27:05.036Z,30.00
2018-10-16T22:29:39.694Z,30.10
2018-10-16T22:32:19.852Z,34.37
2018-10-16T22:35:00.047Z,36.27
2018-10-16T22:37:33.575Z,40.80
2018-10-16T22:40:08.561Z,33.57
2018-10-16T22:42:42.121Z,30.87
2018-10-16T22:45:15.646Z,34.43
2018-10-16T22:47:55.438Z,36.37
2018-10-16T22:50:29.007Z,38.90
2018-10-16T22:53:02.459Z,31.70
2018-10-16T22:55:36.083Z,39.10
2018-10-16T22:58:10.707Z,37.80
2018-10-16T23:00:44.111Z,36.10
2018-10-16T23:03:17.677Z,36.07
2018-10-16T23:05:57.507Z,41.80
2018-10-16T23:08:31.042Z,37.67
2018-10-16T23:11:04.996Z,40.77
2018-10-16T23:13:38.624Z,39.07
2018-10-16T23:16:18.431Z,42.60
2018-10-16T23:18:51.983Z,39.93
2018-10-16T23:21:25.669Z,38.90
2018-10-16T23:23:59.255Z,42.50
2018-10-16T23:26:32.827Z,40.30
2018-10-16T23:29:06.497Z,36.43
2018-10-16T23:31:40.042Z,42.10
2018-10-16T23:34:13.601Z,36.93
2018-10-16T23:36:53.593Z,37.73
2018-10-16T23:39:26.950Z,40.37
2018-10-16T23:42:00.579Z,36.73
2018-10-16T23:44:34.237Z,42.43
2018-10-16T23:47:07.975Z,35.63
2018-10-16T23:49:41.500Z,37.47
2018-10-16T23:52:14.965Z,34.93
2018-10-16T23:54:49.510Z,33.13
2018-10-16T23:57:23.250Z,38.73
2018-10-16T23:59:56.818Z,36.90
